createdAt,value
2017-06-01T00:00:41.465Z,20.06
2017-06-01T00:01:43.151Z,20.13
2017-06-01T00:02:44.994Z,20.02
2017-06-01T00:03:46.753Z,20.16
2017-06-01T00:04:49.677Z,20.21
2017-06-01T00:05:53.585Z,20.03
2017-06-01T00:06:56.128Z,20.04
2017-06-01T00:07:58.529Z,20.03
2017-06-01T00:09:01.884Z,19.91
2017-06-01T00:10:04.394Z,20.02
2017-06-01T00:11:06.007Z,20.00
2017-06-01T00:12:07.740Z,20.02
2017-06-01T00:13:09.500Z,20.03
2017-06-01T00:14:11.245Z,20.02
2017-06-01T00:15:12.879Z,20.02
2017-06-01T00:16:14.559Z,19.96
2017-06-01T00:17:16.274Z,19.85
2017-06-01T00:18:18.022Z,19.85
2017-06-01T00:19:19.697Z,19.73
2017-06-01T00:20:21.410Z,19.74
2017-06-01T00:21:23.164Z,19.85
2017-06-01T00:22:24.886Z,19.74
2017-06-01T00:23:26.659Z,19.70
2017-06-01T00:24:28.406Z,19.69
2017-06-01T00:25:30.082Z,19.79
2017-06-01T00:26:31.824Z,19.67
2017-06-01T00:27:33.550Z,19.79
2017-06-01T00:28:35.409Z,19.79
2017-06-01T00:29:37.154Z,19.55
2017-06-01T00:30:38.870Z,19.54
2017-06-01T00:31:40.600Z,19.81
2017-06-01T00:32:42.332Z,19.73
2017-06-01T00:33:44.095Z,19.56
2017-06-01T00:34:45.855Z,19.69
2017-06-01T00:35:47.622Z,19.56
2017-06-01T00:36:49.316Z,19.56
2017-06-01T00:37:51.021Z,19.48
2017-06-01T00:38:52.754Z,19.56
2017-06-01T00:39:54.438Z,19.51
2017-06-01T00:40:56.124Z,19.55
2017-06-01T00:41:57.797Z,19.59
2017-06-01T00:42:59.446Z,19.63
2017-06-01T00:44:01.200Z,19.44
2017-06-01T00:45:02.833Z,19.59
2017-06-01T00:46:04.512Z,19.49
2017-06-01T00:47:06.195Z,19.47
2017-06-01T00:48:07.930Z,19.44
2017-06-01T00:49:49.165Z,19.37
2017-06-01T00:50:50.834Z,19.51
2017-06-01T00:51:52.495Z,19.41
2017-06-01T00:52:54.174Z,19.40
2017-06-01T00:53:55.876Z,19.45
2017-06-01T00:54:57.629Z,19.39
2017-06-01T00:55:59.277Z,19.36
2017-06-01T00:57:01.014Z,19.47
2017-06-01T00:58:02.663Z,19.41
2017-06-01T00:59:04.318Z,19.33
2017-06-01T01:00:05.997Z,19.31
2017-06-01T01:01:07.654Z,19.29
2017-06-01T01:02:09.380Z,19.22
2017-06-01T01:03:11.040Z,19.27
2017-06-01T01:04:12.693Z,19.22
2017-06-01T01:05:14.318Z,19.21
2017-06-01T01:06:16.008Z,19.18
2017-06-01T01:07:17.641Z,19.33
2017-06-01T01:08:19.308Z,19.33
2017-06-01T01:09:21.035Z,19.21
2017-06-01T01:10:22.791Z,19.26
2017-06-01T01:11:24.303Z,19.21
2017-06-01T01:12:25.959Z,19.24
2017-06-01T01:13:27.598Z,19.22
2017-06-01T01:14:29.272Z,19.29
2017-06-01T01:15:30.989Z,19.27
2017-06-01T01:16:32.614Z,19.19
2017-06-01T01:17:34.270Z,19.11
2017-06-01T01:18:35.895Z,19.07
2017-06-01T01:19:37.551Z,19.16
2017-06-01T01:20:39.283Z,19.19
2017-06-01T01:21:40.942Z,19.18
2017-06-01T01:22:42.621Z,19.12
2017-06-01T01:23:44.288Z,19.12
2017-06-01T01:24:45.918Z,19.09
2017-06-01T01:25:47.610Z,19.11
2017-06-01T01:26:49.284Z,19.24
2017-06-01T01:27:50.936Z,19.11
2017-06-01T01:28:52.580Z,19.11
2017-06-01T01:29:54.214Z,19.14
2017-06-01T01:30:55.868Z,19.08
2017-06-01T01:32:37.075Z,19.11
2017-06-01T01:33:38.732Z,18.98
2017-06-01T01:34:40.457Z,18.95
2017-06-01T01:35:42.122Z,19.02
2017-06-01T01:36:43.754Z,18.88
2017-06-01T01:37:45.525Z,18.89
2017-06-01T01:38:47.161Z,18.95
2017-06-01T01:39:48.817Z,18.81
2017-06-01T01:40:50.486Z,18.83
2017-06-01T01:41:52.146Z,18.84
2017-06-01T01:42:53.801Z,18.77
2017-06-01T01:43:55.448Z,18.86
2017-06-01T01:44:57.089Z,18.90
2017-06-01T01:45:58.807Z,18.92
2017-06-01T01:47:00.499Z,18.84
2017-06-01T01:48:02.222Z,18.78
2017-06-01T01:49:03.909Z,18.74
2017-06-01T01:50:05.570Z,18.75
2017-06-01T01:51:07.335Z,18.77
2017-06-01T01:52:09.000Z,18.74
2017-06-01T01:53:10.732Z,18.96
2017-06-01T01:54:12.437Z,18.81
2017-06-01T01:55:14.111Z,18.81
2017-06-01T01:56:15.830Z,18.66
2017-06-01T01:57:17.527Z,18.73
2017-06-01T01:58:19.272Z,18.78
2017-06-01T01:59:20.927Z,18.66
2017-06-01T02:00:22.580Z,18.73
2017-06-01T02:01:24.281Z,18.73
2017-06-01T02:02:25.908Z,18.78
2017-06-01T02:03:27.657Z,18.90
2017-06-01T02:04:29.374Z,18.89
2017-06-01T02:05:30.994Z,18.92
2017-06-01T02:06:32.660Z,18.90
2017-06-01T02:07:34.277Z,18.65
2017-06-01T02:08:36.039Z,18.73
2017-06-01T02:09:37.717Z,18.68
2017-06-01T02:10:39.436Z,18.56
2017-06-01T02:11:41.106Z,18.53
2017-06-01T02:12:42.831Z,18.52
2017-06-01T02:13:44.487Z,18.58
2017-06-01T02:14:46.215Z,18.66
2017-06-01T02:15:47.858Z,18.66
2017-06-01T02:16:49.504Z,18.65
2017-06-01T02:17:51.123Z,18.63
2017-06-01T02:18:52.738Z,18.68
2017-06-01T02:19:54.383Z,18.56
2017-06-01T02:20:56.032Z,18.53
2017-06-01T02:21:57.694Z,18.60
2017-06-01T02:22:59.308Z,18.55
2017-06-01T02:24:40.452Z,18.50
2017-06-01T02:25:42.066Z,18.52
2017-06-01T02:26:43.753Z,18.53
2017-06-01T02:27:45.364Z,18.43
2017-06-01T02:28:47.021Z,18.50
2017-06-01T02:29:48.769Z,18.56
2017-06-01T02:30:50.381Z,18.50
2017-06-01T02:31:52.000Z,18.55
2017-06-01T02:32:53.621Z,18.50
2017-06-01T02:33:55.251Z,18.53
2017-06-01T02:34:56.998Z,18.59
2017-06-01T02:35:58.656Z,18.66
2017-06-01T02:37:00.292Z,18.68
2017-06-01T02:38:02.013Z,18.60
2017-06-01T02:39:03.655Z,18.55
2017-06-01T02:40:05.337Z,18.47
2017-06-01T02:41:06.987Z,18.34
2017-06-01T02:42:08.620Z,18.44
2017-06-01T02:43:10.230Z,18.26
2017-06-01T02:44:11.902Z,18.25
2017-06-01T02:45:13.603Z,18.28
2017-06-01T02:46:15.253Z,18.20
2017-06-01T02:47:16.864Z,18.18
2017-06-01T02:48:18.466Z,18.28
2017-06-01T02:49:20.137Z,18.28
2017-06-01T02:50:21.805Z,18.26
2017-06-01T02:51:23.470Z,18.05
2017-06-01T02:52:25.122Z,18.26
2017-06-01T02:53:26.788Z,18.28
2017-06-01T02:54:28.463Z,18.33
2017-06-01T02:55:30.183Z,18.23
2017-06-01T02:56:31.900Z,18.22
2017-06-01T02:57:33.543Z,18.08
2017-06-01T02:58:35.238Z,18.18
2017-06-01T02:59:36.937Z,18.18
2017-06-01T03:00:38.611Z,18.25
2017-06-01T03:01:40.271Z,18.18
2017-06-01T03:02:41.892Z,17.98
2017-06-01T03:03:43.603Z,17.98
2017-06-01T03:04:45.336Z,17.92
2017-06-01T03:05:47.064Z,18.05
2017-06-01T03:06:48.737Z,17.94
2017-06-01T03:07:50.451Z,18.04
2017-06-01T03:08:52.156Z,18.19
2017-06-01T03:09:53.953Z,18.08
2017-06-01T03:10:55.763Z,18.04
2017-06-01T03:11:57.502Z,18.04
2017-06-01T03:12:59.254Z,18.10
2017-06-01T03:14:00.943Z,17.94
2017-06-01T03:15:02.684Z,18.05
2017-06-01T03:16:04.446Z,18.22
2017-06-01T03:17:06.128Z,18.15
2017-06-01T03:18:07.912Z,18.00
2017-06-01T03:19:09.681Z,18.04
2017-06-01T03:20:11.374Z,17.95
2017-06-01T03:21:13.073Z,17.97
2017-06-01T03:22:14.743Z,17.94
2017-06-01T03:23:16.482Z,18.04
2017-06-01T03:24:18.224Z,17.97
2017-06-01T03:25:19.904Z,18.08
2017-06-01T03:26:21.555Z,18.04
2017-06-01T03:27:23.315Z,18.10
2017-06-01T03:28:24.957Z,18.05
2017-06-01T03:29:26.701Z,18.01
2017-06-01T03:30:28.443Z,17.92
2017-06-01T03:31:30.140Z,17.92
2017-06-01T03:32:31.835Z,17.95
2017-06-01T03:33:33.569Z,17.82
2017-06-01T03:34:35.266Z,17.85
2017-06-01T03:35:36.986Z,17.78
2017-06-01T03:36:38.669Z,17.95
2017-06-01T03:37:40.339Z,17.83
2017-06-01T03:38:42.102Z,17.78
2017-06-01T03:39:43.794Z,17.71
2017-06-01T03:40:45.496Z,17.71
2017-06-01T03:41:47.191Z,17.85
2017-06-01T03:42:48.888Z,17.76
2017-06-01T03:43:50.636Z,17.74
2017-06-01T03:44:52.277Z,17.74
2017-06-01T03:45:53.949Z,17.71
2017-06-01T03:46:55.565Z,17.68
2017-06-01T03:47:57.218Z,17.76
2017-06-01T03:48:58.980Z,17.70
2017-06-01T03:50:00.695Z,17.76
2017-06-01T03:51:02.424Z,17.74
2017-06-01T03:52:04.080Z,17.85
2017-06-01T03:53:05.728Z,17.71
2017-06-01T03:54:07.422Z,17.74
2017-06-01T03:55:09.152Z,17.76
2017-06-01T03:56:10.791Z,17.83
2017-06-01T03:57:12.550Z,17.74
2017-06-01T03:58:14.210Z,17.59
2017-06-01T03:59:15.788Z,17.57
2017-06-01T04:00:17.485Z,17.60
2017-06-01T04:01:19.128Z,17.56
2017-06-01T04:02:20.790Z,17.57
2017-06-01T04:03:22.478Z,17.74
2017-06-01T04:04:24.220Z,17.78
2017-06-01T04:05:25.890Z,17.78
2017-06-01T04:06:27.596Z,17.68
2017-06-01T04:07:29.213Z,17.87
2017-06-01T04:08:30.815Z,17.74
2017-06-01T04:09:32.508Z,17.72
2017-06-01T04:10:34.187Z,17.76
2017-06-01T04:11:35.785Z,17.74
2017-06-01T04:12:37.428Z,17.71
2017-06-01T04:13:39.102Z,17.56
2017-06-01T04:14:40.816Z,17.64
2017-06-01T04:15:42.475Z,17.63
2017-06-01T04:16:44.073Z,17.59
2017-06-01T04:17:45.694Z,17.57
2017-06-01T04:18:47.338Z,17.56
2017-06-01T04:19:49.024Z,17.71
2017-06-01T04:20:51.547Z,17.63
2017-06-01T04:21:53.223Z,17.70
2017-06-01T04:23:34.403Z,17.72
2017-06-01T04:24:36.074Z,17.82
2017-06-01T04:25:37.710Z,17.85
2017-06-01T04:26:39.337Z,17.92
2017-06-01T04:27:40.962Z,18.07
2017-06-01T04:28:42.586Z,18.18
2017-06-01T04:29:44.209Z,18.20
2017-06-01T04:30:45.907Z,18.26
2017-06-01T04:31:47.501Z,18.35
2017-06-01T04:32:49.170Z,18.44
2017-06-01T04:33:50.882Z,18.56
2017-06-01T04:34:52.453Z,18.66
2017-06-01T04:35:54.136Z,18.68
2017-06-01T04:36:55.751Z,18.77
2017-06-01T04:37:57.442Z,18.89
2017-06-01T04:38:59.051Z,19.02
2017-06-01T04:40:00.694Z,18.98
2017-06-01T04:41:02.319Z,19.11
2017-06-01T04:42:03.935Z,19.16
2017-06-01T04:43:05.637Z,19.31
2017-06-01T04:44:07.310Z,19.36
2017-06-01T04:45:08.999Z,19.41
2017-06-01T04:46:10.660Z,19.59
2017-06-01T04:47:12.314Z,19.56
2017-06-01T04:48:14.051Z,19.70
2017-06-01T04:49:15.739Z,19.79
2017-06-01T04:50:17.522Z,19.86
2017-06-01T04:51:19.191Z,19.99
2017-06-01T04:52:20.874Z,20.00
2017-06-01T04:53:22.701Z,19.99
2017-06-01T04:54:24.355Z,20.13
2017-06-01T04:55:26.022Z,20.24
2017-06-01T04:56:27.705Z,20.29
2017-06-01T04:57:29.378Z,20.37
2017-06-01T04:58:31.098Z,20.37
2017-06-01T04:59:32.756Z,20.50
2017-06-01T05:00:34.448Z,20.47
2017-06-01T05:01:36.124Z,20.58
2017-06-01T05:02:37.863Z,20.60
2017-06-01T05:03:39.567Z,20.77
2017-06-01T05:04:41.235Z,20.72
2017-06-01T05:05:42.891Z,20.65
2017-06-01T05:06:44.552Z,20.87
2017-06-01T05:07:46.257Z,21.00
2017-06-01T05:08:48.011Z,21.00
2017-06-01T05:09:49.639Z,21.11
2017-06-01T05:10:51.325Z,21.21
2017-06-01T05:11:53.033Z,21.12
2017-06-01T05:12:54.697Z,21.21
2017-06-01T05:13:56.419Z,21.33
2017-06-01T05:14:58.047Z,21.35
2017-06-01T05:15:59.691Z,21.40
2017-06-01T05:17:01.355Z,21.50
2017-06-01T05:18:03.898Z,21.45
2017-06-01T05:19:05.597Z,21.51
2017-06-01T05:20:07.269Z,21.58
2017-06-01T05:21:08.916Z,21.66
2017-06-01T05:22:10.536Z,21.66
2017-06-01T05:23:12.214Z,21.70
2017-06-01T05:24:13.916Z,21.73
2017-06-01T05:25:15.605Z,21.82
2017-06-01T05:26:17.613Z,21.83
2017-06-01T05:27:19.271Z,21.85
2017-06-01T05:28:20.983Z,21.85
2017-06-01T05:29:22.625Z,21.96
2017-06-01T05:30:24.266Z,21.95
2017-06-01T05:31:25.876Z,22.07
2017-06-01T05:32:27.495Z,22.15
2017-06-01T05:33:29.188Z,22.15
2017-06-01T05:34:30.831Z,22.13
2017-06-01T05:35:32.531Z,22.20
2017-06-01T05:36:34.197Z,22.32
2017-06-01T05:37:36.063Z,22.41
2017-06-01T05:38:37.770Z,22.43
2017-06-01T05:39:39.377Z,22.43
2017-06-01T05:40:41.003Z,22.44
2017-06-01T05:41:42.846Z,22.48
2017-06-01T05:42:44.705Z,22.53
2017-06-01T05:43:46.561Z,22.63
2017-06-01T05:44:48.414Z,22.63
2017-06-01T05:45:50.111Z,22.73
2017-06-01T05:46:51.812Z,22.69
2017-06-01T05:47:53.448Z,22.70
2017-06-01T05:48:55.067Z,22.80
2017-06-01T05:50:36.251Z,22.85
2017-06-01T05:51:37.860Z,22.76
2017-06-01T05:52:39.576Z,22.80
2017-06-01T05:53:41.151Z,22.83
2017-06-01T05:54:42.863Z,22.88
2017-06-01T05:55:44.583Z,22.81
2017-06-01T05:56:46.255Z,22.93
2017-06-01T05:57:47.858Z,23.08
2017-06-01T05:58:49.505Z,22.99
2017-06-01T05:59:51.152Z,23.15
2017-06-01T06:00:52.806Z,23.21
2017-06-01T06:01:54.462Z,23.10
2017-06-01T06:02:56.090Z,23.18
2017-06-01T06:03:57.708Z,23.28
2017-06-01T06:04:59.344Z,23.25
2017-06-01T06:06:01.018Z,23.27
2017-06-01T06:07:02.706Z,23.40
2017-06-01T06:08:04.330Z,23.43
2017-06-01T06:09:05.925Z,23.39
2017-06-01T06:10:07.511Z,23.34
2017-06-01T06:11:09.216Z,23.40
2017-06-01T06:12:10.875Z,23.36
2017-06-01T06:13:12.568Z,23.48
2017-06-01T06:14:14.271Z,23.55
2017-06-01T06:15:15.887Z,23.61
2017-06-01T06:16:17.646Z,23.65
2017-06-01T06:17:19.282Z,23.73
2017-06-01T06:18:20.990Z,23.58
2017-06-01T06:19:22.653Z,23.71
2017-06-01T06:20:24.317Z,23.77
2017-06-01T06:21:25.993Z,23.69
2017-06-01T06:22:27.777Z,23.76
2017-06-01T06:23:29.491Z,23.86
2017-06-01T06:24:31.214Z,23.93
2017-06-01T06:25:32.876Z,23.99
2017-06-01T06:26:34.515Z,23.96
2017-06-01T06:27:36.184Z,23.96
2017-06-01T06:28:37.911Z,24.01
2017-06-01T06:29:39.619Z,24.03
2017-06-01T06:30:41.367Z,24.17
2017-06-01T06:31:43.016Z,24.16
2017-06-01T06:32:44.713Z,24.20
2017-06-01T06:33:46.404Z,24.21
2017-06-01T06:34:48.158Z,24.21
2017-06-01T06:35:49.880Z,24.28
2017-06-01T06:36:51.576Z,24.30
2017-06-01T06:37:53.272Z,24.32
2017-06-01T06:38:54.964Z,24.30
2017-06-01T06:39:56.675Z,24.36
2017-06-01T06:40:58.369Z,24.38
2017-06-01T06:42:00.157Z,24.39
2017-06-01T06:43:01.871Z,24.50
2017-06-01T06:44:03.565Z,24.54
2017-06-01T06:45:05.253Z,24.54
2017-06-01T06:46:06.893Z,24.55
2017-06-01T06:47:08.604Z,24.50
2017-06-01T06:48:10.245Z,24.74
2017-06-01T06:49:11.885Z,24.69
2017-06-01T06:50:13.504Z,24.73
2017-06-01T06:51:15.211Z,24.73
2017-06-01T06:52:16.918Z,24.78
2017-06-01T06:53:18.565Z,24.80
2017-06-01T06:54:20.219Z,24.92
2017-06-01T06:55:21.906Z,24.96
2017-06-01T06:56:23.530Z,25.03
2017-06-01T06:57:25.217Z,25.01
2017-06-01T06:58:26.851Z,25.11
2017-06-01T06:59:28.475Z,25.21
2017-06-01T07:00:30.118Z,25.17
2017-06-01T07:01:31.794Z,25.29
2017-06-01T07:02:33.484Z,25.31
2017-06-01T07:03:35.123Z,25.32
2017-06-01T07:04:36.768Z,25.40
2017-06-01T07:05:38.369Z,25.36
2017-06-01T07:06:40.057Z,25.36
2017-06-01T07:07:41.668Z,25.43
2017-06-01T07:08:43.265Z,25.41
2017-06-01T07:09:44.891Z,25.50
2017-06-01T07:10:46.483Z,25.53
2017-06-01T07:11:48.100Z,25.59
2017-06-01T07:12:49.793Z,25.62
2017-06-01T07:13:51.455Z,25.65
2017-06-01T07:14:53.058Z,25.75
2017-06-01T07:15:54.686Z,25.81
2017-06-01T07:16:56.308Z,25.84
2017-06-01T07:17:58.005Z,25.78
2017-06-01T07:18:59.628Z,25.96
2017-06-01T07:20:02.087Z,25.91
2017-06-01T07:21:03.767Z,25.95
2017-06-01T07:22:05.375Z,26.05
2017-06-01T07:23:07.034Z,26.03
2017-06-01T07:24:08.660Z,26.21
2017-06-01T07:25:10.295Z,26.09
2017-06-01T07:26:11.915Z,26.18
2017-06-01T07:27:13.520Z,26.23
2017-06-01T07:28:15.196Z,26.31
2017-06-01T07:29:17.929Z,26.29
2017-06-01T07:30:19.620Z,26.26
2017-06-01T07:31:21.313Z,26.34
2017-06-01T07:33:02.442Z,26.40
2017-06-01T07:34:04.066Z,26.44
2017-06-01T07:35:05.710Z,26.53
2017-06-01T07:36:07.350Z,26.53
2017-06-01T07:37:08.948Z,26.52
2017-06-01T07:38:10.565Z,26.55
2017-06-01T07:39:12.161Z,26.62
2017-06-01T07:40:13.788Z,26.59
2017-06-01T07:41:15.407Z,26.70
2017-06-01T07:42:17.063Z,26.70
2017-06-01T07:43:18.731Z,26.77
2017-06-01T07:44:20.337Z,26.77
2017-06-01T07:45:22.019Z,26.81
2017-06-01T07:46:23.671Z,26.95
2017-06-01T07:47:25.353Z,26.95
2017-06-01T07:48:26.962Z,26.96
2017-06-01T07:49:28.603Z,27.03
2017-06-01T07:50:30.347Z,27.00
2017-06-01T07:51:32.013Z,27.02
2017-06-01T07:52:33.672Z,27.17
2017-06-01T07:53:35.377Z,27.14
2017-06-01T07:54:37.047Z,27.18
2017-06-01T07:55:38.731Z,27.11
2017-06-01T07:56:40.401Z,27.20
2017-06-01T07:57:42.044Z,27.22
2017-06-01T07:58:43.763Z,27.26
2017-06-01T07:59:45.386Z,27.35
2017-06-01T08:00:47.062Z,27.36
2017-06-01T08:01:48.709Z,27.39
2017-06-01T08:02:50.336Z,27.39
2017-06-01T08:03:52.052Z,27.37
2017-06-01T08:04:53.661Z,27.37
2017-06-01T08:05:55.336Z,27.47
2017-06-01T08:06:57.000Z,27.51
2017-06-01T08:07:58.684Z,27.58
2017-06-01T08:09:00.374Z,27.63
2017-06-01T08:10:02.014Z,27.60
2017-06-01T08:11:03.681Z,27.71
2017-06-01T08:12:05.331Z,27.65
2017-06-01T08:13:06.975Z,27.73
2017-06-01T08:14:08.698Z,27.77
2017-06-01T08:15:10.352Z,27.70
2017-06-01T08:16:12.012Z,27.80
2017-06-01T08:17:13.687Z,27.80
2017-06-01T08:18:15.337Z,27.83
2017-06-01T08:19:17.041Z,27.85
2017-06-01T08:20:18.752Z,27.90
2017-06-01T08:21:20.690Z,27.86
2017-06-01T08:22:22.346Z,27.95
2017-06-01T08:24:03.513Z,28.01
2017-06-01T08:25:05.202Z,28.05
2017-06-01T08:26:06.840Z,28.11
2017-06-01T08:27:08.529Z,28.12
2017-06-01T08:28:10.180Z,28.12
2017-06-01T08:29:11.797Z,28.11
2017-06-01T08:30:13.420Z,28.20
2017-06-01T08:31:15.024Z,28.17
2017-06-01T08:32:16.686Z,28.22
2017-06-01T08:33:18.339Z,28.23
2017-06-01T08:34:19.909Z,28.17
2017-06-01T08:35:21.591Z,28.32
2017-06-01T08:36:23.189Z,28.30
2017-06-01T08:37:24.950Z,28.32
2017-06-01T08:38:26.586Z,28.39
2017-06-01T08:39:28.156Z,28.38
2017-06-01T08:40:29.778Z,28.37
2017-06-01T08:41:31.419Z,28.39
2017-06-01T08:42:33.088Z,28.51
2017-06-01T08:43:34.708Z,28.47
2017-06-01T08:44:36.384Z,28.57
2017-06-01T08:45:37.993Z,28.48
2017-06-01T08:46:39.598Z,28.57
2017-06-01T08:47:41.243Z,28.60
2017-06-01T08:48:42.873Z,28.64
2017-06-01T08:49:44.519Z,28.66
2017-06-01T08:50:46.137Z,28.63
2017-06-01T08:51:47.784Z,28.63
2017-06-01T08:52:49.458Z,28.70
2017-06-01T08:53:51.050Z,28.75
2017-06-01T08:54:52.679Z,28.79
2017-06-01T08:55:54.302Z,28.82
2017-06-01T08:56:55.919Z,28.76
2017-06-01T08:57:57.605Z,28.82
2017-06-01T08:58:59.231Z,28.93
2017-06-01T09:00:00.904Z,28.85
2017-06-01T09:01:02.526Z,28.88
2017-06-01T09:02:04.166Z,28.89
2017-06-01T09:03:05.835Z,28.88
2017-06-01T09:04:07.451Z,28.96
2017-06-01T09:05:09.180Z,28.91
2017-06-01T09:06:10.798Z,29.05
2017-06-01T09:07:12.442Z,28.98
2017-06-01T09:08:14.084Z,29.04
2017-06-01T09:09:15.676Z,29.12
2017-06-01T09:10:17.405Z,29.07
2017-06-01T09:11:19.049Z,29.10
2017-06-01T09:12:20.654Z,29.19
2017-06-01T09:13:22.301Z,29.16
2017-06-01T09:14:24.007Z,29.24
2017-06-01T09:15:25.704Z,29.19
2017-06-01T09:16:27.398Z,29.19
2017-06-01T09:17:29.081Z,29.24
2017-06-01T09:18:30.781Z,29.29
2017-06-01T09:19:32.544Z,29.32
2017-06-01T09:20:34.246Z,29.32
2017-06-01T09:21:35.930Z,29.29
2017-06-01T09:22:37.675Z,29.45
2017-06-01T09:23:39.326Z,29.44
2017-06-01T09:24:41.061Z,29.41
2017-06-01T09:25:42.751Z,29.45
2017-06-01T09:26:44.452Z,29.47
2017-06-01T09:27:46.120Z,29.45
2017-06-01T09:28:47.847Z,29.47
2017-06-01T09:29:49.587Z,29.56
2017-06-01T09:30:51.255Z,29.49
2017-06-01T09:31:52.927Z,29.63
2017-06-01T09:32:54.580Z,29.59
2017-06-01T09:33:56.226Z,29.60
2017-06-01T09:34:58.021Z,29.65
2017-06-01T09:35:59.648Z,29.60
2017-06-01T09:37:01.304Z,29.71
2017-06-01T09:38:02.979Z,29.57
2017-06-01T09:39:04.672Z,29.65
2017-06-01T09:40:06.494Z,29.66
2017-06-01T09:41:08.248Z,29.68
2017-06-01T09:42:10.009Z,29.61
2017-06-01T09:43:11.697Z,29.68
2017-06-01T09:44:13.386Z,29.63
2017-06-01T09:45:15.129Z,29.72
2017-06-01T09:46:16.897Z,29.73
2017-06-01T09:47:18.584Z,29.76
2017-06-01T09:48:20.253Z,29.81
2017-06-01T09:49:21.994Z,29.82
2017-06-01T09:50:23.711Z,29.84
2017-06-01T09:51:25.438Z,29.86
2017-06-01T09:52:27.118Z,29.86
2017-06-01T09:53:28.866Z,29.86
2017-06-01T09:54:30.493Z,29.82
2017-06-01T09:55:32.217Z,29.84
2017-06-01T09:56:33.917Z,29.87
2017-06-01T09:57:35.559Z,29.90
2017-06-01T09:58:37.331Z,29.82
2017-06-01T09:59:39.009Z,29.86
2017-06-01T10:00:40.690Z,29.95
2017-06-01T10:01:42.407Z,29.95
2017-06-01T10:02:44.119Z,30.03
2017-06-01T10:03:45.845Z,29.90
2017-06-01T10:04:47.504Z,29.94
2017-06-01T10:05:49.276Z,29.87
2017-06-01T10:07:33.526Z,29.97
2017-06-01T10:08:35.258Z,29.95
2017-06-01T10:09:36.950Z,30.05
2017-06-01T10:10:38.609Z,30.05
2017-06-01T10:11:40.288Z,30.05
2017-06-01T10:12:42.036Z,30.05
2017-06-01T10:13:43.704Z,30.08
2017-06-01T10:14:45.396Z,30.00
2017-06-01T10:15:47.057Z,30.08
2017-06-01T10:16:48.743Z,30.00
2017-06-01T10:17:50.411Z,30.03
2017-06-01T10:18:52.123Z,30.02
2017-06-01T10:19:53.765Z,29.97
2017-06-01T10:20:55.442Z,30.08
2017-06-01T10:22:36.591Z,30.00
2017-06-01T10:23:38.190Z,29.97
2017-06-01T10:24:39.841Z,29.95
2017-06-01T10:25:41.545Z,30.02
2017-06-01T10:26:43.238Z,30.00
2017-06-01T10:27:44.969Z,29.88
2017-06-01T10:28:46.886Z,29.98
2017-06-01T10:29:48.588Z,29.95
2017-06-01T10:30:50.226Z,29.97
2017-06-01T10:31:51.878Z,30.00
2017-06-01T10:32:53.642Z,29.90
2017-06-01T10:33:55.261Z,29.98
2017-06-01T10:34:56.930Z,29.88
2017-06-01T10:35:58.576Z,29.97
2017-06-01T10:37:00.219Z,29.93
2017-06-01T10:38:01.970Z,29.91
2017-06-01T10:39:03.606Z,29.95
2017-06-01T10:40:05.264Z,29.93
2017-06-01T10:41:06.883Z,29.91
2017-06-01T10:42:08.549Z,29.90
2017-06-01T10:43:10.251Z,29.90
2017-06-01T10:44:11.903Z,29.93
2017-06-01T10:45:13.565Z,29.87
2017-06-01T10:46:15.240Z,29.87
2017-06-01T10:47:16.920Z,29.79
2017-06-01T10:48:18.658Z,29.73
2017-06-01T10:49:20.323Z,29.79
2017-06-01T10:50:21.979Z,29.73
2017-06-01T10:51:23.665Z,29.76
2017-06-01T10:52:25.306Z,29.73
2017-06-01T10:53:27.054Z,29.72
2017-06-01T10:54:28.715Z,29.75
2017-06-01T10:55:30.399Z,29.69
2017-06-01T10:56:32.029Z,29.65
2017-06-01T10:57:33.695Z,29.69
2017-06-01T10:58:35.413Z,29.61
2017-06-01T10:59:37.060Z,29.69
2017-06-01T11:00:38.736Z,29.60
2017-06-01T11:01:40.402Z,29.53
2017-06-01T11:02:42.040Z,29.57
2017-06-01T11:03:43.776Z,29.57
2017-06-01T11:04:45.413Z,29.72
2017-06-01T11:05:47.058Z,29.63
2017-06-01T11:06:48.716Z,29.60
2017-06-01T11:07:50.328Z,29.60
2017-06-01T11:08:52.004Z,29.59
2017-06-01T11:09:53.615Z,29.60
2017-06-01T11:10:55.230Z,29.60
2017-06-01T11:11:56.870Z,29.53
2017-06-01T11:12:58.535Z,29.51
2017-06-01T11:14:00.274Z,29.54
2017-06-01T11:15:01.970Z,29.54
2017-06-01T11:16:03.665Z,29.49
2017-06-01T11:17:05.364Z,29.49
2017-06-01T11:18:07.013Z,29.50
2017-06-01T11:19:09.054Z,29.47
2017-06-01T11:20:10.714Z,29.50
2017-06-01T11:21:12.358Z,29.50
2017-06-01T11:22:14.050Z,29.45
2017-06-01T11:23:15.715Z,29.49
2017-06-01T11:24:17.410Z,29.45
2017-06-01T11:25:19.091Z,29.45
2017-06-01T11:26:20.697Z,29.38
2017-06-01T11:27:22.371Z,29.42
2017-06-01T11:28:24.016Z,29.42
2017-06-01T11:29:25.735Z,29.41
2017-06-01T11:30:27.429Z,29.42
2017-06-01T11:31:29.100Z,29.39
2017-06-01T11:32:30.760Z,29.31
2017-06-01T11:33:32.424Z,29.34
2017-06-01T11:34:34.111Z,29.34
2017-06-01T11:35:35.798Z,29.39
2017-06-01T11:36:37.425Z,29.38
2017-06-01T11:37:39.135Z,29.29
2017-06-01T11:38:40.824Z,29.24
2017-06-01T11:39:42.482Z,29.26
2017-06-01T11:40:44.134Z,29.29
2017-06-01T11:41:45.764Z,29.26
2017-06-01T11:42:47.530Z,29.26
2017-06-01T11:43:49.343Z,29.26
2017-06-01T11:44:51.971Z,29.16
2017-06-01T11:45:53.623Z,29.19
2017-06-01T11:46:55.280Z,29.20
2017-06-01T11:47:57.027Z,29.26
2017-06-01T11:48:58.658Z,29.19
2017-06-01T11:50:00.294Z,29.17
2017-06-01T11:51:02.722Z,29.17
2017-06-01T11:52:04.318Z,29.13
2017-06-01T11:53:06.013Z,29.20
2017-06-01T11:54:07.635Z,29.24
2017-06-01T11:55:09.240Z,29.20
2017-06-01T11:56:10.855Z,29.12
2017-06-01T11:57:12.498Z,29.04
2017-06-01T11:58:14.226Z,29.17
2017-06-01T11:59:15.862Z,29.17
2017-06-01T12:00:17.544Z,29.12
2017-06-01T12:01:20.051Z,29.08
2017-06-01T12:02:21.635Z,29.20
2017-06-01T12:03:23.298Z,29.13
2017-06-01T12:04:24.905Z,29.10
2017-06-01T12:05:26.590Z,29.14
2017-06-01T12:06:28.277Z,29.10
2017-06-01T12:07:29.964Z,29.08
2017-06-01T12:08:31.627Z,29.05
2017-06-01T12:09:33.390Z,29.08
2017-06-01T12:10:35.042Z,29.05
2017-06-01T12:11:36.761Z,28.96
2017-06-01T12:12:38.445Z,28.97
2017-06-01T12:13:40.140Z,28.96
2017-06-01T12:14:41.805Z,28.94
2017-06-01T12:15:43.497Z,29.05
2017-06-01T12:16:45.242Z,29.02
2017-06-01T12:17:46.914Z,28.97
2017-06-01T12:18:48.593Z,28.97
2017-06-01T12:19:50.261Z,28.91
2017-06-01T12:20:51.916Z,28.89
2017-06-01T12:21:53.650Z,28.94
2017-06-01T12:22:55.295Z,28.91
2017-06-01T12:23:56.941Z,28.94
2017-06-01T12:24:58.687Z,28.88
2017-06-01T12:26:00.342Z,28.93
2017-06-01T12:27:02.062Z,28.94
2017-06-01T12:28:03.772Z,28.89
2017-06-01T12:29:05.446Z,28.91
2017-06-01T12:30:07.109Z,28.85
2017-06-01T12:31:08.757Z,28.88
2017-06-01T12:32:10.408Z,28.89
2017-06-01T12:33:12.180Z,28.91
2017-06-01T12:34:13.875Z,28.85
2017-06-01T12:35:15.581Z,28.85
2017-06-01T12:36:17.225Z,28.84
2017-06-01T12:37:18.873Z,28.88
2017-06-01T12:38:20.592Z,28.82
2017-06-01T12:39:22.201Z,28.82
2017-06-01T12:40:23.876Z,28.81
2017-06-01T12:41:25.478Z,28.81
2017-06-01T12:42:27.849Z,28.76
2017-06-01T12:43:29.577Z,28.75
2017-06-01T12:44:31.223Z,28.79
2017-06-01T12:45:32.879Z,28.84
2017-06-01T12:46:34.521Z,28.78
2017-06-01T12:47:36.146Z,28.76
2017-06-01T12:48:37.851Z,28.76
2017-06-01T12:49:39.493Z,28.70
2017-06-01T12:50:41.140Z,28.67
2017-06-01T12:51:42.754Z,28.69
2017-06-01T12:52:44.386Z,28.62
2017-06-01T12:53:46.113Z,28.74
2017-06-01T12:54:47.753Z,28.66
2017-06-01T12:55:49.402Z,28.70
2017-06-01T12:56:51.094Z,28.67
2017-06-01T12:57:52.749Z,28.64
2017-06-01T12:58:54.478Z,28.66
2017-06-01T12:59:56.174Z,28.64
2017-06-01T13:00:57.815Z,28.59
2017-06-01T13:01:59.479Z,28.62
2017-06-01T13:03:01.167Z,28.64
2017-06-01T13:04:02.918Z,28.66
2017-06-01T13:05:04.634Z,28.63
2017-06-01T13:06:06.298Z,28.64
2017-06-01T13:07:07.952Z,28.60
2017-06-01T13:08:09.596Z,28.56
2017-06-01T13:09:11.337Z,28.56
2017-06-01T13:10:12.975Z,28.57
2017-06-01T13:11:14.608Z,28.64
2017-06-01T13:12:16.279Z,28.52
2017-06-01T13:13:17.941Z,28.57
2017-06-01T13:14:19.669Z,28.54
2017-06-01T13:15:21.240Z,28.56
2017-06-01T13:16:22.922Z,28.54
2017-06-01T13:17:24.597Z,28.59
2017-06-01T13:18:26.193Z,28.56
2017-06-01T13:19:27.866Z,28.56
2017-06-01T13:20:29.593Z,28.54